Time;durP1;ratioP1;P1;durP2;ratioP2;P2;SDS_P1;SDS_P2;PMS_P1;PMS_P2;Temp;Humidity;BMP_temperature;BMP_pressure;BME280_temperature;BME280_humidity;BME280_pressure;Samples;Min_cycle;Max_cycle;Signal;HPM_P1;HPM_P2
2021/01/28 00:01:18;;;;;;;3.80;1.95;;;19.50;44.30;;;;;;5062786;28;20487;-64
2021/01/28 00:03:44;;;;;;;3.22;1.67;;;19.50;44.30;;;;;;5045595;28;20123;-65
2021/01/28 00:06:09;;;;;;;2.35;1.42;;;19.60;44.30;;;;;;5063139;28;20025;-64
2021/01/28 00:08:35;;;;;;;2.88;1.60;;;19.50;44.30;;;;;;5062940;28;20037;-64
2021/01/28 00:11:01;;;;;;;3.65;1.58;;;19.60;44.30;;;;;;5063371;28;20065;-66
2021/01/28 00:13:26;;;;;;;3.33;1.60;;;19.50;44.30;;;;;;5063372;28;20032;-65
2021/01/28 00:15:52;;;;;;;2.88;1.65;;;19.50;44.30;;;;;;5062503;28;20032;-65
2021/01/28 00:18:17;;;;;;;2.42;1.48;;;19.60;44.30;;;;;;5063564;28;20060;-65
2021/01/28 00:20:46;;;;;;;2.30;1.30;;;19.60;44.30;;;;;;5063154;28;20032;-65
2021/01/28 00:23:11;;;;;;;2.90;1.80;;;19.60;44.30;;;;;;5063484;28;20064;-64
2021/01/28 00:25:37;;;;;;;2.63;1.70;;;19.60;44.30;;;;;;5044850;28;20063;-65
2021/01/28 00:28:03;;;;;;;2.20;1.42;;;19.60;44.30;;;;;;5045014;28;20028;-65
2021/01/28 00:30:34;;;;;;;2.17;1.42;;;19.60;44.30;;;;;;5062842;28;20032;-65
2021/01/28 00:33:00;;;;;;;1.90;1.30;;;19.60;44.30;;;;;;5038672;28;20033;-65
2021/01/28 00:35:28;;;;;;;3.08;1.48;;;19.50;44.20;;;;;;5067155;28;20043;-65
2021/01/28 00:37:54;;;;;;;1.95;1.17;;;19.60;44.30;;;;;;5066099;28;20075;-65
2021/01/28 00:40:19;;;;;;;2.80;1.20;;;19.60;44.30;;;;;;5066991;28;20056;-64
2021/01/28 00:42:48;;;;;;;1.77;1.13;;;19.60;44.30;;;;;;5065954;28;20123;-65
2021/01/28 00:45:15;;;;;;;1.20;0.90;;;19.60;44.30;;;;;;5048967;28;20040;-65
2021/01/28 00:47:41;;;;;;;4.20;1.20;;;19.50;44.30;;;;;;5066122;28;20039;-65
2021/01/28 00:50:07;;;;;;;2.22;1.60;;;19.50;44.30;;;;;;5065576;28;20056;-66
2021/01/28 00:52:33;;;;;;;1.08;0.90;;;19.50;44.30;;;;;;5066676;28;20052;-65
2021/01/28 00:54:58;;;;;;;2.72;1.30;;;19.50;44.30;;;;;;5065883;28;20037;-65
2021/01/28 00:57:24;;;;;;;1.17;0.95;;;19.50;44.30;;;;;;5065663;28;20048;-65
2021/01/28 00:59:49;;;;;;;2.05;1.30;;;19.50;44.30;;;;;;5066210;28;20655;-65
2021/01/28 01:02:14;;;;;;;2.58;1.35;;;19.50;44.40;;;;;;5066605;28;20089;-65
2021/01/28 01:04:40;;;;;;;1.35;0.88;;;19.50;44.40;;;;;;5065557;28;20037;-65
2021/01/28 01:07:05;;;;;;;1.67;1.00;;;19.50;45.00;;;;;;5066046;28;20495;-65
2021/01/28 01:09:31;;;;;;;1.55;0.90;;;19.50;44.40;;;;;;5066593;28;20031;-65
2021/01/28 01:11:57;;;;;;;1.70;1.20;;;19.50;44.40;;;;;;5065311;28;20255;-65
2021/01/28 01:14:22;;;;;;;1.40;1.10;;;19.50;44.40;;;;;;5066251;28;20544;-65
2021/01/28 01:16:48;;;;;;;3.72;1.15;;;19.50;44.50;;;;;;5065711;28;20071;-64
2021/01/28 01:19:14;;;;;;;2.58;0.82;;;19.50;44.40;;;;;;5047722;28;20037;-65
2021/01/28 01:21:39;;;;;;;2.47;1.10;;;19.50;44.40;;;;;;5047677;28;20777;-64
2021/01/28 01:24:05;;;;;;;1.40;0.98;;;19.40;44.40;;;;;;5066380;28;20094;-64
2021/01/28 01:26:31;;;;;;;1.77;1.10;;;19.50;44.50;;;;;;5064734;28;20033;-65
2021/01/28 01:28:56;;;;;;;1.42;1.00;;;19.40;44.40;;;;;;5065714;28;20086;-65
2021/01/28 01:31:22;;;;;;;1.38;0.88;;;19.40;44.40;;;;;;5065853;28;20035;-64
2021/01/28 01:33:47;;;;;;;1.55;0.88;;;19.40;44.40;;;;;;5065815;28;20033;-65
2021/01/28 01:36:13;;;;;;;0.98;0.82;;;19.40;44.40;;;;;;5065061;28;20031;-64
2021/01/28 01:38:38;;;;;;;1.25;0.80;;;19.40;44.40;;;;;;5065190;28;20025;-65
2021/01/28 01:41:04;;;;;;;1.20;0.90;;;19.40;44.50;;;;;;5065812;28;20174;-65
2021/01/28 01:43:29;;;;;;;0.93;0.90;;;19.40;44.40;;;;;;5065239;28;20043;-64
2021/01/28 01:45:58;;;;;;;1.60;0.93;;;19.40;44.50;;;;;;5065053;28;21899;-65
2021/01/28 01:48:52;;;;;;;1.42;0.80;;;19.40;44.40;;;;;;5065437;28;20028;-65
2021/01/28 01:51:18;;;;;;;1.83;1.00;;;19.40;44.50;;;;;;5044013;28;20024;-65
2021/01/28 01:53:55;;;;;;;0.93;0.70;;;19.40;44.50;;;;;;5065216;28;20037;-64
2021/01/28 01:56:29;;;;;;;1.05;0.88;;;19.40;44.50;;;;;;5046744;28;20036;-64
2021/01/28 01:58:58;;;;;;;0.77;0.50;;;19.40;44.50;;;;;;5048307;28;20024;-62
2021/01/28 02:01:25;;;;;;;1.58;0.73;;;19.40;44.50;;;;;;5065298;28;20024;-65
2021/01/28 02:03:51;;;;;;;0.90;0.70;;;19.40;44.50;;;;;;5047347;28;20056;-65
2021/01/28 02:06:21;;;;;;;1.02;0.63;;;19.30;44.40;;;;;;5064504;28;20487;-62
2021/01/28 02:08:51;;;;;;;0.95;0.75;;;19.30;44.50;;;;;;5046937;28;20032;-65
2021/01/28 02:11:16;;;;;;;1.25;0.70;;;19.30;44.50;;;;;;5046507;28;20039;-64
2021/01/28 02:13:42;;;;;;;0.77;0.52;;;19.30;44.50;;;;;;5064282;28;20124;-65
2021/01/28 02:16:08;;;;;;;1.60;0.95;;;19.30;44.60;;;;;;5023726;28;20077;-65
2021/01/28 02:18:34;;;;;;;1.08;0.60;;;19.30;44.60;;;;;;5046505;28;20040;-64
2021/01/28 02:21:29;;;;;;;1.20;1.02;;;19.20;44.60;;;;;;5046402;28;20410;-63
2021/01/28 02:24:02;;;;;;;3.25;0.80;;;19.20;44.60;;;;;;5031018;28;20036;-62
2021/01/28 02:26:27;;;;;;;0.77;0.60;;;19.20;44.60;;;;;;5038728;28;20032;-64
2021/01/28 02:28:53;;;;;;;0.57;0.57;;;19.20;44.70;;;;;;5046448;28;20035;-65
2021/01/28 02:31:18;;;;;;;1.05;0.73;;;19.20;44.70;;;;;;5064178;28;20513;-64
2021/01/28 02:33:52;;;;;;;1.75;0.90;;;19.10;44.70;;;;;;5046613;28;20032;-63
2021/01/28 02:36:17;;;;;;;1.17;1.08;;;19.10;44.80;;;;;;5045577;28;20040;-64
2021/01/28 02:38:43;;;;;;;0.60;0.60;;;19.00;44.80;;;;;;5064869;28;20033;-64
2021/01/28 02:41:09;;;;;;;1.25;0.75;;;19.00;44.80;;;;;;5046849;28;20025;-64
2021/01/28 02:43:34;;;;;;;0.93;0.68;;;19.00;44.90;;;;;;5046229;28;20036;-64
2021/01/28 02:46:10;;;;;;;0.77;0.40;;;19.00;44.90;;;;;;5064222;28;20086;-64
2021/01/28 02:48:36;;;;;;;1.52;0.70;;;19.00;45.00;;;;;;5064243;28;20518;-64
2021/01/28 02:51:02;;;;;;;1.23;0.68;;;18.90;44.90;;;;;;5064350;28;20116;-64
2021/01/28 02:53:37;;;;;;;1.33;0.70;;;18.90;44.90;;;;;;5063648;28;20208;-62
2021/01/28 02:56:03;;;;;;;1.27;0.60;;;18.90;44.90;;;;;;5063197;28;20033;-65
2021/01/28 02:58:28;;;;;;;0.70;0.50;;;18.90;44.90;;;;;;5064169;28;20029;-64
2021/01/28 03:00:54;;;;;;;0.50;0.40;;;18.90;44.90;;;;;;5064101;28;20406;-65
2021/01/28 03:03:19;;;;;;;0.47;0.40;;;18.80;44.90;;;;;;5064242;28;20032;-65
2021/01/28 03:05:45;;;;;;;1.02;0.68;;;18.90;44.90;;;;;;5063736;28;20040;-64
2021/01/28 03:08:10;;;;;;;1.25;0.70;;;18.80;44.80;;;;;;5062895;28;20025;-64
2021/01/28 03:10:36;;;;;;;0.60;0.60;;;18.80;44.80;;;;;;5063686;28;20522;-64
2021/01/28 03:13:02;;;;;;;0.85;0.60;;;18.80;44.90;;;;;;5062786;28;20119;-64
2021/01/28 03:15:28;;;;;;;0.95;0.60;;;18.80;44.90;;;;;;5063913;28;20032;-64
2021/01/28 03:17:53;;;;;;;0.90;0.50;;;18.80;45.00;;;;;;5063382;28;20167;-64
2021/01/28 03:20:19;;;;;;;1.05;0.52;;;18.70;45.00;;;;;;5063625;28;20474;-68
2021/01/28 03:22:45;;;;;;;0.80;0.55;;;18.70;45.00;;;;;;5045933;28;20044;-65
2021/01/28 03:25:12;;;;;;;0.90;0.50;;;18.70;45.00;;;;;;5045585;28;20037;-64
2021/01/28 03:27:38;;;;;;;1.02;0.50;;;18.70;45.00;;;;;;5063045;28;20581;-65
2021/01/28 03:30:11;;;;;;;0.70;0.52;;;18.70;45.00;;;;;;5045436;28;20029;-64
2021/01/28 03:32:36;;;;;;;0.55;0.50;;;18.80;45.00;;;;;;5063737;28;20178;-65
2021/01/28 03:35:02;;;;;;;0.90;0.60;;;18.80;44.90;;;;;;5063235;28;20119;-65
2021/01/28 03:37:28;;;;;;;0.80;0.60;;;18.90;44.90;;;;;;5062125;28;20041;-65
2021/01/28 03:39:53;;;;;;;0.70;0.50;;;19.00;44.80;;;;;;5063622;28;20037;-64
2021/01/28 03:42:19;;;;;;;0.60;0.50;;;19.00;44.60;;;;;;5063204;28;20501;-65
2021/01/28 03:44:44;;;;;;;0.93;0.75;;;19.20;44.50;;;;;;5063953;28;20044;-65
2021/01/28 03:47:10;;;;;;;3.70;0.52;;;19.20;44.30;;;;;;5063374;28;20029;-64
2021/01/28 03:49:35;;;;;;;1.10;0.70;;;19.30;44.20;;;;;;5064106;28;20414;-64
2021/01/28 03:52:01;;;;;;;1.38;1.02;;;19.40;44.10;;;;;;5063273;28;20029;-64
2021/01/28 03:54:26;;;;;;;0.60;0.50;;;19.50;44.00;;;;;;5063465;28;20036;-62
2021/01/28 03:56:51;;;;;;;1.00;0.60;;;19.50;43.90;;;;;;5062414;28;20125;-64
2021/01/28 03:59:17;;;;;;;0.73;0.55;;;19.60;43.90;;;;;;5063951;28;20032;-65
2021/01/28 04:01:42;;;;;;;1.42;0.70;;;19.60;43.70;;;;;;5063256;28;20124;-64
2021/01/28 04:04:08;;;;;;;0.73;0.32;;;19.70;43.70;;;;;;5063594;28;20025;-64
2021/01/28 04:06:33;;;;;;;1.40;0.40;;;19.70;43.60;;;;;;5063023;28;20541;-64
2021/01/28 04:08:59;;;;;;;0.50;0.50;;;19.80;43.60;;;;;;5066897;28;20070;-65
2021/01/28 04:11:25;;;;;;;0.77;0.57;;;19.80;43.50;;;;;;5048995;28;20040;-64
2021/01/28 04:13:50;;;;;;;0.43;0.40;;;19.80;43.40;;;;;;5067487;28;20033;-65
2021/01/28 04:16:16;;;;;;;0.65;0.57;;;19.90;43.40;;;;;;5066194;28;20033;-65
2021/01/28 04:18:41;;;;;;;0.50;0.50;;;19.90;43.40;;;;;;5066560;28;20613;-64
2021/01/28 04:21:07;;;;;;;0.52;0.40;;;19.90;43.30;;;;;;5066354;28;20086;-65
2021/01/28 04:23:32;;;;;;;0.80;0.40;;;19.90;43.30;;;;;;5066386;28;20063;-65
2021/01/28 04:25:58;;;;;;;1.52;0.98;;;19.90;43.30;;;;;;5066129;28;20593;-64
2021/01/28 04:28:23;;;;;;;0.93;0.50;;;19.90;43.30;;;;;;5066208;28;20074;-65
2021/01/28 04:30:49;;;;;;;0.50;0.40;;;19.90;43.30;;;;;;5067281;28;20028;-65
2021/01/28 04:33:14;;;;;;;2.22;0.63;;;19.90;43.30;;;;;;5066626;28;20029;-64
2021/01/28 04:35:40;;;;;;;1.15;0.40;;;19.90;43.30;;;;;;5066086;28;20083;-65
2021/01/28 04:38:05;;;;;;;0.47;0.30;;;19.80;43.30;;;;;;5066326;28;20146;-65
2021/01/28 04:40:35;;;;;;;0.50;0.40;;;19.80;43.30;;;;;;5066827;28;20526;-64
2021/01/28 04:43:15;;;;;;;0.70;0.63;;;19.80;43.40;;;;;;5066449;28;20070;-64
2021/01/28 04:45:40;;;;;;;0.40;0.38;;;19.80;43.40;;;;;;5048759;28;20051;-64
2021/01/28 04:48:06;;;;;;;0.63;0.55;;;19.80;43.40;;;;;;5066353;28;20056;-64
2021/01/28 04:50:34;;;;;;;0.65;0.50;;;19.70;43.40;;;;;;5048019;28;20074;-64
2021/01/28 04:53:31;;;;;;;0.32;0.32;;;19.70;43.40;;;;;;5048646;28;20037;-65
2021/01/28 04:55:56;;;;;;;0.50;0.50;;;19.70;43.50;;;;;;5052524;28;20044;-65
2021/01/28 04:58:22;;;;;;;0.38;0.35;;;19.70;43.50;;;;;;5048993;28;20525;-64
2021/01/28 05:00:47;;;;;;;0.63;0.50;;;19.70;43.50;;;;;;5066169;28;20498;-64
2021/01/28 05:03:31;;;;;;;0.47;0.35;;;19.70;43.50;;;;;;5065959;28;20032;-65
2021/01/28 05:05:58;;;;;;;0.85;0.50;;;19.60;43.60;;;;;;5033245;28;20044;-64
2021/01/28 05:08:24;;;;;;;0.93;0.52;;;19.60;43.60;;;;;;5048582;28;20086;-64
2021/01/28 05:10:53;;;;;;;2.97;0.45;;;19.60;43.60;;;;;;5066238;28;20036;-61
2021/01/28 05:13:35;;;;;;;1.77;0.40;;;19.60;43.60;;;;;;5048884;28;20041;-64
2021/01/28 05:16:37;;;;;;;1.60;0.63;;;19.50;43.60;;;;;;5058487;28;20066;-64
2021/01/28 05:19:05;;;;;;;1.27;0.65;;;19.50;43.60;;;;;;5031301;28;20040;-64
2021/01/28 05:21:44;;;;;;;1.60;0.30;;;19.50;43.60;;;;;;5065526;28;20491;-62
2021/01/28 05:24:13;;;;;;;1.13;0.50;;;19.50;43.60;;;;;;5031812;28;20447;-65
2021/01/28 05:26:42;;;;;;;1.00;0.50;;;19.50;43.60;;;;;;5031601;28;20029;-65
2021/01/28 05:29:18;;;;;;;1.75;0.52;;;19.50;43.60;;;;;;5065849;28;20052;-64
2021/01/28 05:31:44;;;;;;;0.55;0.47;;;19.50;43.70;;;;;;5047945;28;20415;-66
2021/01/28 05:34:11;;;;;;;2.63;0.50;;;19.50;43.60;;;;;;5064830;28;20060;-64
2021/01/28 05:37:10;;;;;;;2.33;0.50;;;19.50;43.70;;;;;;5047561;28;20048;-64
2021/01/28 05:39:38;;;;;;;2.90;0.40;;;19.40;43.70;;;;;;5000209;28;20420;-64
2021/01/28 05:42:13;;;;;;;1.88;0.70;;;19.40;43.70;;;;;;5065173;28;20039;-64
2021/01/28 05:44:38;;;;;;;1.38;0.50;;;19.40;43.80;;;;;;5047343;28;20059;-62
2021/01/28 05:47:29;;;;;;;2.20;0.35;;;19.40;43.90;;;;;;5047591;28;20068;-62
2021/01/28 05:50:10;;;;;;;1.42;0.47;;;19.40;43.90;;;;;;5058305;28;20060;-64
2021/01/28 05:52:36;;;;;;;2.45;0.50;;;19.40;44.00;;;;;;5032684;28;20396;-65
2021/01/28 05:55:14;;;;;;;0.80;0.80;;;19.40;44.00;;;;;;5056898;28;20050;-64
2021/01/28 05:57:59;;;;;;;3.85;0.70;;;19.40;44.10;;;;;;5041629;28;20036;-64
2021/01/28 06:00:44;;;;;;;2.33;0.50;;;19.40;44.10;;;;;;5047625;28;20036;-65
2021/01/28 06:03:29;;;;;;;;;;;19.40;44.10;;;;;;5042995;28;20136;-67
2021/01/28 06:05:58;;;;;;;1.83;0.60;;;19.40;44.10;;;;;;5056909;28;19912;-65
2021/01/28 06:08:54;;;;;;;3.45;0.55;;;19.40;44.10;;;;;;5065230;28;20440;-65
2021/01/28 06:11:43;;;;;;;4.00;0.60;;;19.40;44.10;;;;;;5060284;28;20422;-65
2021/01/28 06:14:39;;;;;;;1.83;0.82;;;19.40;44.10;;;;;;5043796;28;20066;-64
2021/01/28 06:17:35;;;;;;;3.30;0.90;;;19.40;44.20;;;;;;5037567;28;20508;-64
2021/01/28 06:20:15;;;;;;;4.85;0.63;;;19.40;44.20;;;;;;5065516;28;20048;-64
2021/01/28 06:22:58;;;;;;;4.43;0.70;;;19.40;44.20;;;;;;5045891;28;20048;-64
2021/01/28 06:25:36;;;;;;;1.83;0.40;;;19.40;44.20;;;;;;5046878;28;20072;-64
2021/01/28 06:28:20;;;;;;;1.65;0.50;;;19.40;44.30;;;;;;5054015;28;20582;-64
2021/01/28 06:31:11;;;;;;;5.47;0.80;;;19.40;44.40;;;;;;5045978;28;20044;-63
2021/01/28 06:33:55;;;;;;;3.67;0.88;;;19.40;44.60;;;;;;5032124;28;20048;-64
2021/01/28 06:36:42;;;;;;;4.25;0.50;;;19.40;44.70;;;;;;5064907;28;20029;-64
2021/01/28 06:39:13;;;;;;;2.38;0.55;;;19.30;44.80;;;;;;5046897;28;20045;-64
2021/01/28 06:41:47;;;;;;;1.40;0.55;;;19.30;44.80;;;;;;5064904;28;20025;-64
2021/01/28 06:44:21;;;;;;;4.57;0.70;;;19.30;44.80;;;;;;5031843;28;20036;-64
2021/01/28 06:47:00;;;;;;;1.88;0.77;;;19.30;44.80;;;;;;5030909;28;20040;-64
2021/01/28 06:49:49;;;;;;;1.20;0.60;;;19.20;44.70;;;;;;5015483;28;20071;-64
2021/01/28 06:52:44;;;;;;;3.58;0.80;;;19.20;44.70;;;;;;5047124;28;20036;-64
2021/01/28 06:55:50;;;;;;;2.05;0.60;;;19.20;44.70;;;;;;5049619;28;20056;-64
2021/01/28 06:58:49;;;;;;;3.13;0.77;;;19.10;44.60;;;;;;4962871;28;20798;-64
2021/01/28 07:01:31;;;;;;;2.83;0.80;;;19.10;44.60;;;;;;5049298;28;20029;-64
2021/01/28 07:04:16;;;;;;;2.55;0.80;;;19.10;45.20;;;;;;5032229;28;20036;-64
2021/01/28 07:07:22;;;;;;;4.82;0.80;;;19.10;44.60;;;;;;5064243;28;20399;-63
2021/01/28 07:10:28;;;;;;;4.15;1.00;;;19.00;44.50;;;;;;5059481;28;20078;-64
2021/01/28 07:12:53;;;;;;;2.73;1.20;;;19.00;44.50;;;;;;4971422;28;20050;-64
2021/01/28 07:15:26;;;;;;;1.90;1.05;;;19.00;44.50;;;;;;4966637;28;20023;-61
2021/01/28 07:17:55;;;;;;;2.72;0.80;;;19.00;44.50;;;;;;5006544;28;20037;-64
2021/01/28 07:20:34;;;;;;;2.53;0.85;;;19.00;44.50;;;;;;5029471;28;20025;-64
2021/01/28 07:23:23;;;;;;;1.60;1.25;;;19.00;44.50;;;;;;5045085;28;20037;-66
2021/01/28 07:25:49;;;;;;;2.30;0.95;;;19.00;44.50;;;;;;5044187;28;20112;-66
2021/01/28 07:28:18;;;;;;;2.58;0.90;;;18.90;44.50;;;;;;5045052;28;20365;-61
2021/01/28 07:31:13;;;;;;;1.33;1.00;;;18.90;44.50;;;;;;5044204;28;20025;-66
2021/01/28 07:33:40;;;;;;;0.88;0.65;;;18.90;44.50;;;;;;5045042;28;20089;-65
2021/01/28 07:36:12;;;;;;;1.63;0.80;;;18.90;44.50;;;;;;5044094;28;20503;-66
2021/01/28 07:39:00;;;;;;;0.93;0.73;;;18.90;44.50;;;;;;5044883;28;20128;-65
2021/01/28 07:41:50;;;;;;;2.28;1.02;;;18.90;44.50;;;;;;5032445;28;20048;-65
2021/01/28 07:44:25;;;;;;;1.20;0.80;;;18.90;44.50;;;;;;5044192;28;20037;-66
2021/01/28 07:46:53;;;;;;;3.95;0.82;;;18.90;44.50;;;;;;5044256;28;20036;-66
2021/01/28 07:49:23;;;;;;;2.78;1.10;;;18.80;44.50;;;;;;5044650;28;20033;-65
2021/01/28 07:51:50;;;;;;;2.35;0.77;;;18.80;44.50;;;;;;5026638;28;20029;-66
2021/01/28 07:54:22;;;;;;;1.52;0.93;;;18.80;44.50;;;;;;5044197;28;20033;-65
2021/01/28 07:56:51;;;;;;;1.50;1.20;;;18.80;44.50;;;;;;5044131;28;20380;-66
2021/01/28 07:59:48;;;;;;;1.73;0.80;;;18.80;44.60;;;;;;5050494;28;20052;-65
2021/01/28 08:02:30;;;;;;;1.77;1.10;;;18.70;44.50;;;;;;5043191;28;20029;-65
2021/01/28 08:05:01;;;;;;;10.75;1.45;;;18.70;44.50;;;;;;5064769;28;20437;-64
2021/01/28 08:08:01;;;;;;;2.17;1.10;;;18.80;44.60;;;;;;5063926;28;20028;-64
2021/01/28 08:10:39;;;;;;;1.45;0.80;;;18.70;44.60;;;;;;5064286;28;20402;-65
2021/01/28 08:13:19;;;;;;;1.25;0.77;;;18.70;44.60;;;;;;5064207;28;20025;-65
2021/01/28 08:15:47;;;;;;;1.08;0.70;;;18.70;44.60;;;;;;5064001;28;20059;-66
2021/01/28 08:18:27;;;;;;;2.60;0.80;;;18.80;44.60;;;;;;5047016;28;20690;-67
2021/01/28 08:21:21;;;;;;;1.35;0.82;;;18.80;44.60;;;;;;5063793;28;20043;-66
2021/01/28 08:23:47;;;;;;;1.90;0.90;;;18.80;44.60;;;;;;5044106;28;20478;-65
2021/01/28 08:26:14;;;;;;;1.30;0.70;;;18.80;44.70;;;;;;5044155;28;20109;-65
2021/01/28 08:28:42;;;;;;;1.20;0.73;;;18.80;44.70;;;;;;5025894;28;20064;-65
2021/01/28 08:31:26;;;;;;;2.15;0.80;;;18.80;44.70;;;;;;5026314;28;20025;-65
2021/01/28 08:34:05;;;;;;;2.25;0.93;;;18.80;44.70;;;;;;5026655;28;20032;-65
2021/01/28 08:36:51;;;;;;;1.77;0.85;;;18.80;44.70;;;;;;5043987;28;20033;-64
2021/01/28 08:39:22;;;;;;;2.20;0.85;;;18.90;44.70;;;;;;5043630;28;20496;-65
2021/01/28 08:42:01;;;;;;;1.50;0.90;;;18.90;44.70;;;;;;5043482;28;20025;-65
2021/01/28 08:44:27;;;;;;;1.90;1.00;;;18.90;44.70;;;;;;5044042;28;20056;-65
2021/01/28 08:47:07;;;;;;;1.23;0.80;;;18.90;44.60;;;;;;5043850;28;20021;-65
2021/01/28 08:49:32;;;;;;;2.08;0.90;;;19.00;44.60;;;;;;5044247;28;20025;-62
2021/01/28 08:52:03;;;;;;;1.08;0.93;;;19.00;44.50;;;;;;5025934;28;20491;-65
2021/01/28 08:54:33;;;;;;;0.98;0.80;;;19.00;44.50;;;;;;5029591;28;20033;-65
2021/01/28 08:56:58;;;;;;;1.00;0.70;;;19.00;44.40;;;;;;5029905;28;20054;-64
2021/01/28 08:59:30;;;;;;;1.48;0.90;;;19.10;44.40;;;;;;5030218;28;20108;-64
2021/01/28 09:01:55;;;;;;;1.10;0.70;;;19.10;44.40;;;;;;5029688;28;20037;-64
2021/01/28 09:04:32;;;;;;;1.02;0.70;;;19.10;44.40;;;;;;5013359;28;20033;-64
2021/01/28 09:06:57;;;;;;;1.75;0.57;;;19.10;44.40;;;;;;5046886;28;20053;-64
2021/01/28 09:09:32;;;;;;;1.38;0.93;;;19.10;44.40;;;;;;5047388;28;20368;-65
2021/01/28 09:12:27;;;;;;;3.33;1.33;;;19.10;44.40;;;;;;5046573;28;20032;-65
2021/01/28 09:15:16;;;;;;;2.20;0.70;;;19.10;44.30;;;;;;5047002;28;20025;-65
2021/01/28 09:17:43;;;;;;;1.25;0.60;;;19.10;44.30;;;;;;5022597;28;20037;-64
2021/01/28 09:20:18;;;;;;;1.73;0.80;;;19.10;44.30;;;;;;5047020;28;20437;-64
2021/01/28 09:22:43;;;;;;;1.35;0.93;;;19.10;44.30;;;;;;5030357;28;20539;-64
2021/01/28 09:25:16;;;;;;;1.88;0.90;;;19.10;44.30;;;;;;5046661;28;20029;-65
2021/01/28 09:27:42;;;;;;;0.70;0.70;;;19.20;44.30;;;;;;5046304;28;20029;-63
2021/01/28 09:30:19;;;;;;;1.65;1.05;;;19.20;44.30;;;;;;5029098;28;20075;-64
2021/01/28 09:32:45;;;;;;;1.45;0.63;;;19.20;44.30;;;;;;5030481;28;20510;-64
2021/01/28 09:35:14;;;;;;;1.20;0.80;;;19.20;44.20;;;;;;5029276;28;20053;-65
2021/01/28 09:38:00;;;;;;;0.70;0.60;;;19.20;44.20;;;;;;5046743;28;20045;-61
2021/01/28 09:40:31;;;;;;;0.82;0.75;;;19.10;44.10;;;;;;5045991;28;20033;-64
2021/01/28 09:43:25;;;;;;;1.15;0.68;;;19.10;44.20;;;;;;5046601;28;20031;-65
2021/01/28 09:46:09;;;;;;;0.98;0.82;;;19.20;44.20;;;;;;5046040;28;20442;-65
2021/01/28 09:48:34;;;;;;;1.13;0.70;;;19.20;44.20;;;;;;5046854;28;20507;-64
2021/01/28 09:51:03;;;;;;;1.42;0.82;;;19.20;44.10;;;;;;5046324;28;20068;-61
2021/01/28 09:53:28;;;;;;;1.40;1.00;;;19.20;44.10;;;;;;5046739;28;20032;-65
2021/01/28 09:55:54;;;;;;;1.63;0.60;;;19.20;44.10;;;;;;5045996;28;20059;-65
2021/01/28 09:58:19;;;;;;;1.08;0.65;;;19.20;44.10;;;;;;5046869;28;20033;-64
2021/01/28 10:00:45;;;;;;;0.70;0.68;;;19.20;44.00;;;;;;5046626;28;20025;-64
2021/01/28 10:03:11;;;;;;;1.85;0.70;;;19.20;44.00;;;;;;5046589;28;20112;-64
2021/01/28 10:05:36;;;;;;;1.02;0.70;;;19.20;44.00;;;;;;5027936;28;20072;-64
2021/01/28 10:08:02;;;;;;;1.20;0.73;;;19.20;44.00;;;;;;5045852;28;20025;-63
2021/01/28 10:10:30;;;;;;;1.58;0.90;;;19.20;44.00;;;;;;5046044;28;20067;-65
2021/01/28 10:13:01;;;;;;;3.08;1.15;;;19.20;44.00;;;;;;5028209;28;20060;-62
2021/01/28 10:15:27;;;;;;;1.05;0.95;;;19.20;44.00;;;;;;5028448;28;20049;-65
2021/01/28 10:17:53;;;;;;;2.28;0.80;;;19.30;44.10;;;;;;5028187;28;20053;-65
2021/01/28 10:20:19;;;;;;;1.33;0.80;;;19.30;44.10;;;;;;5046265;28;20044;-65
2021/01/28 10:22:46;;;;;;;1.83;0.80;;;19.30;44.10;;;;;;5045383;28;20052;-65
2021/01/28 10:25:12;;;;;;;2.10;1.15;;;19.30;44.00;;;;;;5028090;28;20029;-65
2021/01/28 10:27:38;;;;;;;1.75;0.93;;;19.30;44.00;;;;;;5045434;28;20411;-65
2021/01/28 10:30:05;;;;;;;1.92;0.88;;;19.30;44.00;;;;;;5027832;28;20036;-65
2021/01/28 10:32:30;;;;;;;2.17;0.73;;;19.30;43.90;;;;;;5045285;28;20037;-65
2021/01/28 10:34:56;;;;;;;1.40;0.90;;;19.30;44.00;;;;;;5027766;28;20489;-65
2021/01/28 10:37:21;;;;;;;1.45;0.75;;;19.40;44.00;;;;;;5058645;28;20033;-65
2021/01/28 10:39:47;;;;;;;1.85;0.85;;;19.40;44.00;;;;;;5065595;28;20497;-65
2021/01/28 10:42:17;;;;;;;1.42;0.98;;;19.30;44.00;;;;;;5065234;28;20032;-66
2021/01/28 10:44:43;;;;;;;2.28;1.40;;;19.40;44.00;;;;;;5047553;28;20040;-65
2021/01/28 10:47:08;;;;;;;2.22;0.82;;;19.40;44.00;;;;;;5064972;28;20058;-66
2021/01/28 10:49:33;;;;;;;3.92;1.10;;;19.40;44.00;;;;;;5065411;28;20487;-65
2021/01/28 10:51:59;;;;;;;2.63;1.15;;;19.40;44.00;;;;;;5064938;28;20031;-65
2021/01/28 10:54:24;;;;;;;2.22;1.10;;;19.40;44.00;;;;;;5065758;28;20043;-65
2021/01/28 10:56:52;;;;;;;4.95;1.58;;;19.40;44.00;;;;;;5065002;28;20036;-65
2021/01/28 10:59:18;;;;;;;3.40;1.35;;;19.40;44.00;;;;;;5030679;28;20039;-64
2021/01/28 11:01:43;;;;;;;2.55;1.08;;;19.40;44.10;;;;;;5030561;28;20033;-66
2021/01/28 11:04:09;;;;;;;4.32;1.48;;;19.30;44.00;;;;;;5065287;28;20036;-64
2021/01/28 11:06:34;;;;;;;2.78;1.27;;;19.40;44.00;;;;;;5064450;28;20598;-65
2021/01/28 11:09:00;;;;;;;2.08;1.13;;;19.40;44.00;;;;;;5064958;28;20040;-65
2021/01/28 11:11:25;;;;;;;4.78;1.20;;;19.40;44.10;;;;;;5065389;28;20084;-65
2021/01/28 11:13:54;;;;;;;2.58;1.10;;;19.40;44.00;;;;;;5064689;28;20112;-64
2021/01/28 11:16:23;;;;;;;3.38;1.13;;;19.30;44.00;;;;;;5046099;28;20035;-67
2021/01/28 11:18:50;;;;;;;4.38;1.48;;;19.30;44.00;;;;;;5065006;28;20123;-65
2021/01/28 11:21:15;;;;;;;3.28;1.05;;;19.30;44.00;;;;;;5065123;28;20032;-64
2021/01/28 11:23:41;;;;;;;1.58;0.80;;;19.30;44.00;;;;;;5047018;28;20394;-65
2021/01/28 11:26:06;;;;;;;3.75;1.23;;;19.30;44.10;;;;;;5064417;28;20019;-65
2021/01/28 11:28:32;;;;;;;3.10;1.13;;;19.30;44.10;;;;;;5064849;28;20082;-64
2021/01/28 11:30:57;;;;;;;3.00;1.27;;;19.30;44.00;;;;;;5065172;28;20488;-65
2021/01/28 11:33:23;;;;;;;4.72;1.10;;;19.40;44.10;;;;;;5046587;28;20025;-64
2021/01/28 11:35:48;;;;;;;2.45;1.20;;;19.40;44.10;;;;;;5063645;28;20029;-64
2021/01/28 11:38:14;;;;;;;4.80;1.35;;;19.30;44.00;;;;;;5064485;28;20039;-64
2021/01/28 11:40:39;;;;;;;3.30;1.38;;;19.30;44.10;;;;;;5064440;28;20036;-64
2021/01/28 11:43:06;;;;;;;7.53;1.83;;;19.30;44.00;;;;;;5064478;28;20875;-65
2021/01/28 11:45:32;;;;;;;5.72;1.95;;;19.40;44.10;;;;;;5064729;28;20028;-65
2021/01/28 11:47:58;;;;;;;6.78;2.03;;;19.30;44.00;;;;;;5046826;28;20040;-65
2021/01/28 11:50:23;;;;;;;5.10;1.77;;;19.40;44.10;;;;;;5046186;28;20024;-65
2021/01/28 11:52:49;;;;;;;6.05;2.03;;;19.40;44.00;;;;;;5064587;28;20063;-65
2021/01/28 11:55:19;;;;;;;6.63;2.15;;;19.40;44.20;;;;;;5064268;28;20031;-65
2021/01/28 11:57:45;;;;;;;3.80;1.55;;;19.40;44.20;;;;;;5064164;28;20567;-65
2021/01/28 12:00:11;;;;;;;6.05;2.33;;;19.40;44.20;;;;;;5064309;28;20115;-65
2021/01/28 12:02:37;;;;;;;4.47;1.70;;;19.40;44.20;;;;;;5046086;28;20143;-64
2021/01/28 12:05:03;;;;;;;10.23;2.33;;;19.40;44.20;;;;;;5064032;28;20048;-65
2021/01/28 12:07:29;;;;;;;5.50;1.60;;;19.40;44.20;;;;;;5064290;28;20036;-65
2021/01/28 12:09:54;;;;;;;5.40;2.10;;;19.40;44.20;;;;;;5063950;28;20444;-65
2021/01/28 12:12:20;;;;;;;5.28;2.10;;;19.50;44.20;;;;;;5029730;28;20037;-65
2021/01/28 12:14:45;;;;;;;4.55;1.33;;;19.40;44.20;;;;;;5064224;28;20036;-65
2021/01/28 12:17:11;;;;;;;3.20;1.55;;;19.40;44.30;;;;;;5063987;28;20411;-64
2021/01/28 12:19:36;;;;;;;7.28;2.08;;;19.40;44.40;;;;;;5063922;28;20044;-65
2021/01/28 12:22:02;;;;;;;3.60;1.90;;;19.40;44.40;;;;;;5046387;28;20025;-65
2021/01/28 12:24:28;;;;;;;3.67;1.50;;;19.40;44.50;;;;;;5046141;28;20032;-65
2021/01/28 12:26:55;;;;;;;4.78;1.55;;;19.30;44.50;;;;;;5063933;28;20032;-64
2021/01/28 12:29:21;;;;;;;4.95;1.60;;;19.30;44.50;;;;;;5067421;28;20094;-65
2021/01/28 12:31:46;;;;;;;6.47;1.70;;;19.20;44.50;;;;;;5068329;28;20683;-65
2021/01/28 12:34:12;;;;;;;4.00;1.33;;;19.20;44.70;;;;;;5067662;28;20028;-64
2021/01/28 12:36:37;;;;;;;5.00;1.80;;;19.30;44.80;;;;;;5068623;28;20120;-64
2021/01/28 12:39:03;;;;;;;3.30;1.73;;;19.20;44.70;;;;;;5068485;28;20029;-64
2021/01/28 12:41:29;;;;;;;5.13;1.75;;;19.30;44.80;;;;;;5050238;28;20655;-59
2021/01/28 12:43:54;;;;;;;7.97;1.40;;;19.20;44.70;;;;;;5067431;28;20051;-65
2021/01/28 12:46:20;;;;;;;5.60;1.23;;;19.30;44.90;;;;;;5066720;28;20021;-64
2021/01/28 12:48:45;;;;;;;3.63;1.13;;;19.30;44.90;;;;;;5067202;28;20055;-62
2021/01/28 12:51:11;;;;;;;5.43;1.65;;;19.30;45.00;;;;;;5067044;28;20021;-64
2021/01/28 12:53:36;;;;;;;5.03;2.03;;;19.30;45.00;;;;;;5067271;28;20027;-65
2021/01/28 12:56:02;;;;;;;4.72;1.20;;;19.20;45.00;;;;;;5067383;28;20499;-65
2021/01/28 12:58:27;;;;;;;3.53;1.50;;;19.30;45.00;;;;;;5048955;28;20025;-65
2021/01/28 13:00:53;;;;;;;3.35;1.38;;;19.30;45.10;;;;;;5066703;28;20028;-65
2021/01/28 13:03:18;;;;;;;4.13;2.28;;;19.30;45.20;;;;;;5048457;28;20029;-64
2021/01/28 13:05:44;;;;;;;4.28;1.83;;;19.30;45.20;;;;;;5048714;28;20029;-64